Time;durP1;ratioP1;P1;durP2;ratioP2;P2;SDS_P1;SDS_P2;PMS_P1;PMS_P2;Temp;Humidity;BMP_temperature;BMP_pressure;BME280_temperature;BME280_humidity;BME280_pressure;Samples;Min_cycle;Max_cycle;Signal;HPM_P1;HPM_P2
2021/05/14 00:01:55;;;;;;;5.18;2.80;;;14.40;99.90;;;;;;4921069;29;20024;-78
2021/05/14 00:04:21;;;;;;;4.63;2.88;;;14.50;99.90;;;;;;4920955;29;20095;-77
2021/05/14 00:06:48;;;;;;;5.53;2.75;;;14.50;99.90;;;;;;4921334;29;20028;-78
2021/05/14 00:09:16;;;;;;;6.25;3.08;;;14.50;99.90;;;;;;4938162;29;20376;-78
2021/05/14 00:11:42;;;;;;;5.60;2.80;;;14.50;99.90;;;;;;4938042;29;20035;-78
2021/05/14 00:14:08;;;;;;;6.05;2.70;;;14.50;99.90;;;;;;4938351;29;20031;-77
2021/05/14 00:16:35;;;;;;;6.13;2.45;;;14.40;99.90;;;;;;4937898;29;20023;-75
2021/05/14 00:19:01;;;;;;;5.70;2.47;;;14.40;99.90;;;;;;4937693;29;20118;-75
2021/05/14 00:21:28;;;;;;;5.05;2.33;;;14.30;99.90;;;;;;4937842;29;20031;-74
2021/05/14 00:23:54;;;;;;;3.58;2.10;;;14.40;99.90;;;;;;4920605;29;20028;-75
2021/05/14 00:26:22;;;;;;;4.72;2.20;;;14.30;99.90;;;;;;4938009;29;20044;-78
2021/05/14 00:28:48;;;;;;;7.15;2.95;;;14.40;99.90;;;;;;4937578;29;20498;-77
2021/05/14 00:31:15;;;;;;;4.20;1.98;;;14.30;99.90;;;;;;4937946;29;20039;-77
2021/05/14 00:33:41;;;;;;;3.45;2.33;;;14.40;99.90;;;;;;4920423;29;20024;-77
2021/05/14 00:36:07;;;;;;;5.55;2.60;;;14.30;99.90;;;;;;4937545;29;20475;-78
2021/05/14 00:38:34;;;;;;;5.82;2.45;;;14.30;99.90;;;;;;4937593;29;20019;-78
2021/05/14 00:41:00;;;;;;;4.32;2.30;;;14.20;99.90;;;;;;4937327;29;20097;-77
2021/05/14 00:43:26;;;;;;;6.15;2.38;;;14.10;99.90;;;;;;4937691;29;20019;-76
2021/05/14 00:45:52;;;;;;;5.45;2.60;;;14.00;99.90;;;;;;4937491;29;20459;-77
2021/05/14 00:48:17;;;;;;;4.72;2.28;;;14.00;99.90;;;;;;4937357;29;20034;-74
2021/05/14 00:50:43;;;;;;;5.05;2.45;;;14.10;99.90;;;;;;4937207;29;20027;-78
2021/05/14 00:53:10;;;;;;;3.95;2.38;;;14.10;99.90;;;;;;4919937;29;20023;-77
2021/05/14 00:55:36;;;;;;;5.00;2.40;;;14.10;99.90;;;;;;4937184;29;20506;-74
2021/05/14 00:58:02;;;;;;;5.97;2.70;;;14.10;99.90;;;;;;4936946;29;20024;-74
2021/05/14 01:00:28;;;;;;;6.63;3.10;;;14.20;99.90;;;;;;4937386;29;20466;-75
2021/05/14 01:02:54;;;;;;;5.35;3.25;;;14.30;99.90;;;;;;4936971;29;20024;-75
2021/05/14 01:05:22;;;;;;;6.10;3.35;;;14.40;99.90;;;;;;4936884;29;20111;-78
2021/05/14 01:07:50;;;;;;;4.03;3.10;;;14.40;99.90;;;;;;4919794;29;20474;-75
2021/05/14 01:10:17;;;;;;;5.90;2.80;;;14.50;99.90;;;;;;4920056;29;20041;-79
2021/05/14 01:12:43;;;;;;;4.20;2.83;;;14.60;99.90;;;;;;4936963;29;20027;-78
2021/05/14 01:15:10;;;;;;;5.55;3.22;;;14.70;99.90;;;;;;4936785;29;20028;-78
2021/05/14 01:17:36;;;;;;;5.72;3.20;;;14.60;99.90;;;;;;4936840;29;20155;-79
2021/05/14 01:20:03;;;;;;;8.63;3.60;;;14.50;99.90;;;;;;4936857;29;20118;-78
2021/05/14 01:22:29;;;;;;;5.55;3.35;;;14.60;99.90;;;;;;4936750;29;20146;-75
2021/05/14 01:24:55;;;;;;;7.80;3.65;;;14.60;99.90;;;;;;4936845;29;20083;-78
2021/05/14 01:27:22;;;;;;;5.75;3.50;;;14.60;99.90;;;;;;4936378;29;20052;-75
2021/05/14 01:29:48;;;;;;;5.93;3.30;;;14.70;99.90;;;;;;4936765;29;20035;-77
2021/05/14 01:32:15;;;;;;;4.93;3.30;;;14.70;99.90;;;;;;4936817;29;20348;-75
2021/05/14 01:34:41;;;;;;;7.22;3.70;;;14.70;99.90;;;;;;4936762;29;20103;-75
2021/05/14 01:37:07;;;;;;;8.48;4.07;;;14.60;99.90;;;;;;4936581;29;20414;-78
2021/05/14 01:39:34;;;;;;;5.70;3.70;;;14.60;99.90;;;;;;4936583;29;20510;-79
2021/05/14 01:42:02;;;;;;;5.60;3.33;;;14.60;99.90;;;;;;4919591;29;20481;-78
2021/05/14 01:44:29;;;;;;;5.40;3.30;;;14.60;99.90;;;;;;4936638;29;20063;-78
2021/05/14 01:46:55;;;;;;;8.73;3.30;;;14.60;99.90;;;;;;4936552;29;20106;-76
2021/05/14 01:49:21;;;;;;;5.18;3.30;;;14.70;99.90;;;;;;4936390;29;20115;-78
2021/05/14 01:51:47;;;;;;;5.55;3.22;;;14.60;99.90;;;;;;4936399;29;20024;-78
2021/05/14 01:54:14;;;;;;;4.95;3.70;;;14.50;99.90;;;;;;4936355;29;20083;-77
2021/05/14 01:56:47;;;;;;;5.47;3.47;;;14.50;99.90;;;;;;4936405;29;20095;-79
2021/05/14 01:59:13;;;;;;;4.50;3.30;;;14.40;99.90;;;;;;4936555;29;20020;-78
2021/05/14 02:01:39;;;;;;;5.28;3.60;;;14.20;99.90;;;;;;4936786;29;20032;-75
2021/05/14 02:04:05;;;;;;;6.78;4.00;;;14.10;99.90;;;;;;4937135;29;20024;-79
2021/05/14 02:06:31;;;;;;;4.55;3.40;;;14.00;99.90;;;;;;4940256;29;20027;-79
2021/05/14 02:08:57;;;;;;;10.32;3.83;;;14.10;99.90;;;;;;4940222;29;20020;-78
2021/05/14 02:11:23;;;;;;;7.90;3.83;;;14.10;99.90;;;;;;4940090;29;20486;-79
2021/05/14 02:13:49;;;;;;;7.78;3.70;;;14.10;99.90;;;;;;4939944;29;20028;-79
2021/05/14 02:16:16;;;;;;;10.15;3.90;;;14.10;99.90;;;;;;4939977;29;20537;-77
2021/05/14 02:18:44;;;;;;;7.22;3.50;;;;;;;;;;4940082;29;20015;-78
2021/05/14 02:21:10;;;;;;;5.78;3.85;;;14.00;99.90;;;;;;4940166;29;20028;-78
2021/05/14 02:23:36;;;;;;;7.82;3.55;;;14.00;99.90;;;;;;4940066;29;20382;-79
2021/05/14 02:26:04;;;;;;;8.02;3.53;;;14.00;99.90;;;;;;4939813;29;20024;-75
2021/05/14 02:28:31;;;;;;;8.20;3.90;;;14.00;99.90;;;;;;4939655;29;20509;-75
2021/05/14 02:30:57;;;;;;;6.50;4.22;;;13.90;99.90;;;;;;4939681;29;20130;-79
2021/05/14 02:33:23;;;;;;;7.13;4.60;;;13.90;99.90;;;;;;4939819;29;20035;-79
2021/05/14 02:35:49;;;;;;;8.15;3.95;;;13.90;99.90;;;;;;4939716;29;20032;-78
2021/05/14 02:38:15;;;;;;;7.28;4.22;;;13.90;99.90;;;;;;4939769;29;20027;-79
2021/05/14 02:40:41;;;;;;;7.72;4.45;;;13.90;99.90;;;;;;4922589;29;20031;-79
2021/05/14 02:43:07;;;;;;;6.93;4.72;;;13.90;99.90;;;;;;4922352;29;20086;-79
2021/05/14 02:45:33;;;;;;;6.90;4.85;;;13.90;99.90;;;;;;4939628;29;20020;-77
2021/05/14 02:47:59;;;;;;;6.88;4.93;;;13.90;99.90;;;;;;4939690;29;20549;-75
2021/05/14 02:50:25;;;;;;;8.65;5.13;;;13.90;99.90;;;;;;4939649;29;20506;-79
2021/05/14 02:52:51;;;;;;;8.32;4.90;;;13.90;99.90;;;;;;4939343;29;20019;-80
2021/05/14 02:55:17;;;;;;;16.17;5.03;;;13.80;99.90;;;;;;4939947;29;20020;-80
2021/05/14 02:57:43;;;;;;;7.47;4.32;;;13.80;99.90;;;;;;4939405;29;20031;-75
2021/05/14 03:00:11;;;;;;;8.77;4.30;;;13.80;99.90;;;;;;4922322;29;20086;-75
2021/05/14 03:02:37;;;;;;;5.93;4.07;;;13.80;99.90;;;;;;4939241;29;20397;-75
2021/05/14 03:05:04;;;;;;;8.85;4.05;;;13.80;99.90;;;;;;4939268;29;20055;-78
2021/05/14 03:07:30;;;;;;;8.68;4.10;;;13.80;99.90;;;;;;4939510;29;20462;-78
2021/05/14 03:09:56;;;;;;;6.57;4.15;;;13.80;99.90;;;;;;4939112;29;20042;-79
2021/05/14 03:12:22;;;;;;;7.07;4.45;;;13.80;99.90;;;;;;4939433;29;20039;-75
2021/05/14 03:14:48;;;;;;;9.32;3.85;;;13.80;99.90;;;;;;4938896;29;20031;-76
2021/05/14 03:17:14;;;;;;;5.43;3.90;;;13.80;99.90;;;;;;4939025;29;20023;-79
2021/05/14 03:19:40;;;;;;;5.85;4.03;;;13.80;99.90;;;;;;4921804;29;20019;-78
2021/05/14 03:22:06;;;;;;;7.53;4.85;;;13.70;99.90;;;;;;4939028;29;20098;-79
2021/05/14 03:24:32;;;;;;;6.68;4.18;;;13.80;99.90;;;;;;4938928;29;20115;-79
2021/05/14 03:26:58;;;;;;;5.75;4.45;;;13.80;99.90;;;;;;4938777;29;20083;-75
2021/05/14 03:29:24;;;;;;;8.10;4.20;;;13.90;99.90;;;;;;4939018;29;20474;-79
2021/05/14 03:31:51;;;;;;;6.80;4.10;;;13.90;99.90;;;;;;4938695;29;20470;-77
2021/05/14 03:34:17;;;;;;;7.53;3.80;;;14.00;99.90;;;;;;4938933;29;20446;-77
2021/05/14 03:36:43;;;;;;;7.13;3.75;;;14.00;99.90;;;;;;4921385;29;20055;-75
2021/05/14 03:39:09;;;;;;;7.18;4.22;;;14.10;99.90;;;;;;4938618;29;20020;-79
2021/05/14 03:41:46;;;;;;;6.90;4.25;;;14.10;99.90;;;;;;4938552;29;20071;-77
2021/05/14 03:44:13;;;;;;;6.45;4.28;;;14.10;99.90;;;;;;4938826;29;20031;-78
2021/05/14 03:46:39;;;;;;;7.40;4.40;;;14.10;99.90;;;;;;4938534;29;20530;-75
2021/05/14 03:49:05;;;;;;;7.63;4.55;;;14.20;99.90;;;;;;4938420;29;20028;-79
2021/05/14 03:51:34;;;;;;;6.70;4.03;;;14.20;99.90;;;;;;4938627;29;20024;-77
2021/05/14 03:54:00;;;;;;;7.90;4.30;;;14.10;99.90;;;;;;4938313;29;20020;-79
2021/05/14 03:56:26;;;;;;;5.90;3.88;;;14.10;99.90;;;;;;4938172;29;20023;-79
2021/05/14 03:58:52;;;;;;;5.70;3.67;;;14.00;99.90;;;;;;4938337;29;20493;-79
2021/05/14 04:01:20;;;;;;;13.23;4.40;;;13.90;99.90;;;;;;4938091;29;20035;-79
2021/05/14 04:03:46;;;;;;;5.95;4.10;;;14.00;99.90;;;;;;4938372;29;20114;-78
2021/05/14 04:06:12;;;;;;;6.55;3.72;;;13.90;99.90;;;;;;4938075;29;20023;-76
2021/05/14 04:08:38;;;;;;;5.63;3.40;;;14.00;99.90;;;;;;4938394;29;20601;-79
2021/05/14 04:16:34;;;;;;;6.45;3.88;;;14.10;99.90;;;;;;4937951;29;20039;-76
2021/05/14 04:19:02;;;;;;;7.20;3.90;;;14.20;99.90;;;;;;4937934;29;20027;-79
2021/05/14 04:21:28;;;;;;;7.45;3.80;;;14.10;99.90;;;;;;4920681;29;20067;-79
2021/05/14 04:23:54;;;;;;;6.18;3.80;;;14.10;99.90;;;;;;4920719;29;20028;-76
2021/05/14 04:26:20;;;;;;;5.30;4.13;;;14.20;99.90;;;;;;4937091;29;20024;-75
2021/05/14 04:28:46;;;;;;;7.05;4.40;;;14.10;99.90;;;;;;4937567;29;20127;-75
2021/05/14 04:31:12;;;;;;;6.82;4.40;;;14.10;99.90;;;;;;4937483;29;20043;-80
2021/05/14 04:33:38;;;;;;;6.28;4.32;;;14.10;99.90;;;;;;4937300;29;20525;-78
2021/05/14 04:36:05;;;;;;;7.40;4.07;;;14.10;99.90;;;;;;4937938;29;20024;-77
2021/05/14 04:38:31;;;;;;;8.05;4.18;;;14.00;99.90;;;;;;4937699;29;20470;-78
2021/05/14 04:40:57;;;;;;;6.88;4.00;;;14.10;99.90;;;;;;4937523;29;20537;-78
2021/05/14 04:43:23;;;;;;;10.30;4.15;;;14.30;99.90;;;;;;4920326;29;20027;-76
2021/05/14 04:45:49;;;;;;;8.25;4.18;;;14.30;99.90;;;;;;4937203;29;20118;-79
2021/05/14 04:48:14;;;;;;;11.63;4.10;;;14.40;99.90;;;;;;4937385;29;20123;-77
2021/05/14 04:50:41;;;;;;;9.23;4.40;;;14.40;99.90;;;;;;4937452;29;20111;-79
2021/05/14 04:53:11;;;;;;;8.63;5.15;;;14.50;99.90;;;;;;4937604;29;20039;-77
2021/05/14 04:55:38;;;;;;;13.13;4.88;;;14.50;99.90;;;;;;4937383;29;20043;-75
2021/05/14 04:58:04;;;;;;;8.90;4.93;;;14.50;99.90;;;;;;4937176;29;20024;-78
2021/05/14 05:00:30;;;;;;;8.02;4.63;;;14.50;99.90;;;;;;4937240;29;20078;-76
2021/05/14 05:02:56;;;;;;;8.45;5.32;;;14.50;99.90;;;;;;4937593;29;20185;-79
2021/05/14 05:05:23;;;;;;;11.60;5.72;;;14.50;99.90;;;;;;4937164;29;20074;-80
2021/05/14 05:07:49;;;;;;;10.18;5.38;;;14.50;99.90;;;;;;4937309;29;20474;-75
2021/05/14 05:10:15;;;;;;;11.75;5.32;;;14.50;99.90;;;;;;4937192;29;20111;-79
2021/05/14 05:12:41;;;;;;;12.38;5.10;;;14.60;99.90;;;;;;4937020;29;20028;-78
2021/05/14 05:15:10;;;;;;;11.88;4.75;;;14.60;99.90;;;;;;4936860;29;20026;-79
2021/05/14 05:17:36;;;;;;;11.45;4.90;;;14.60;99.90;;;;;;4937007;29;20027;-78
2021/05/14 05:20:04;;;;;;;8.95;4.70;;;14.70;99.90;;;;;;4919734;29;20023;-79
2021/05/14 05:22:30;;;;;;;9.55;4.72;;;14.80;99.90;;;;;;4936782;29;20031;-77
2021/05/14 05:24:56;;;;;;;8.82;4.10;;;14.90;99.90;;;;;;4937131;29;20023;-77
2021/05/14 05:27:22;;;;;;;9.77;4.03;;;14.90;99.90;;;;;;4936369;29;20502;-76
2021/05/14 05:29:48;;;;;;;9.13;4.00;;;15.00;99.90;;;;;;4936642;29;20035;-75
2021/05/14 05:32:14;;;;;;;10.20;4.32;;;15.10;99.90;;;;;;4936499;29;20024;-80
2021/05/14 05:34:40;;;;;;;12.48;6.57;;;15.20;99.90;;;;;;4936698;29;20450;-77
2021/05/14 05:37:06;;;;;;;84.97;48.20;;;15.20;99.90;;;;;;4936537;29;20023;-78
2021/05/14 05:39:32;;;;;;;22.05;13.70;;;15.30;99.90;;;;;;4935659;29;20032;-76
2021/05/14 05:41:57;;;;;;;17.35;6.40;;;15.30;99.90;;;;;;4936627;29;20028;-77
2021/05/14 05:44:23;;;;;;;19.25;11.63;;;15.30;99.90;;;;;;4936385;29;20024;-76
2021/05/14 05:46:53;;;;;;;20.13;7.28;;;15.40;99.90;;;;;;4919184;29;20046;-77
2021/05/14 05:49:21;;;;;;;21.48;10.98;;;15.40;99.90;;;;;;4936305;29;20157;-76
2021/05/14 05:51:47;;;;;;;22.08;11.02;;;15.50;99.90;;;;;;4936319;29;20079;-76
2021/05/14 05:54:13;;;;;;;19.42;10.85;;;15.60;99.90;;;;;;4919133;29;20024;-76
2021/05/14 05:56:42;;;;;;;14.02;5.68;;;16.00;99.90;;;;;;4936372;29;20024;-76
2021/05/14 05:59:11;;;;;;;10.63;4.82;;;16.10;99.90;;;;;;4936261;29;20030;-76
2021/05/14 06:01:37;;;;;;;6.93;3.30;;;16.30;99.90;;;;;;4936279;29;20024;-78
2021/05/14 06:04:04;;;;;;;7.82;3.80;;;16.40;99.90;;;;;;4935638;29;20378;-79
2021/05/14 06:06:29;;;;;;;11.48;8.40;;;16.50;99.90;;;;;;4936502;29;20032;-77
2021/05/14 06:08:55;;;;;;;26.90;19.90;;;16.50;99.90;;;;;;4935919;29;20028;-80
2021/05/14 06:11:21;;;;;;;6.13;3.00;;;16.70;99.90;;;;;;4936355;29;20032;-79
2021/05/14 06:13:47;;;;;;;5.40;2.50;;;16.80;99.90;;;;;;4936391;29;20368;-79
2021/05/14 06:16:14;;;;;;;7.82;3.47;;;16.80;99.90;;;;;;4936086;29;20027;-78
2021/05/14 06:18:45;;;;;;;6.78;2.40;;;16.90;99.90;;;;;;4936161;29;20090;-78
2021/05/14 06:21:11;;;;;;;8.27;2.70;;;17.00;99.90;;;;;;4936375;29;20028;-78
2021/05/14 06:23:37;;;;;;;6.22;2.00;;;17.30;99.90;;;;;;4936509;29;20382;-78
2021/05/14 06:26:03;;;;;;;4.43;1.92;;;17.30;99.90;;;;;;4935910;29;20027;-76
2021/05/14 06:28:29;;;;;;;5.05;1.90;;;17.30;99.30;;;;;;4935843;29;20517;-78
2021/05/14 06:30:55;;;;;;;5.95;2.10;;;17.20;99.10;;;;;;4936230;29;20417;-77
2021/05/14 06:33:21;;;;;;;5.13;2.60;;;17.30;99.90;;;;;;4936251;29;20023;-80
2021/05/14 06:35:49;;;;;;;5.18;2.33;;;17.40;99.20;;;;;;4918965;29;20051;-78
2021/05/14 06:38:16;;;;;;;8.52;2.47;;;17.50;99.80;;;;;;4936618;29;20028;-82
2021/05/14 06:40:42;;;;;;;4.75;1.75;;;17.60;99.70;;;;;;4936096;29;20019;-78
2021/05/14 06:43:08;;;;;;;5.82;1.92;;;17.90;98.50;;;;;;4935778;29;20079;-75
2021/05/14 06:45:34;;;;;;;5.40;1.95;;;;;;;;;;4918714;29;20078;-78
2021/05/14 06:48:05;;;;;;;4.90;1.90;;;18.40;98.00;;;;;;4935672;29;20020;-77
2021/05/14 06:50:31;;;;;;;5.32;1.88;;;18.60;99.40;;;;;;4937818;29;20090;-77
2021/05/14 06:52:57;;;;;;;4.45;1.40;;;18.80;98.90;;;;;;4922387;29;20032;-79
2021/05/14 06:55:23;;;;;;;4.15;1.40;;;18.80;95.40;;;;;;4939408;29;20103;-76
2021/05/14 06:57:49;;;;;;;3.08;1.20;;;18.70;95.70;;;;;;4939445;29;20163;-76
2021/05/14 07:00:18;;;;;;;3.95;1.30;;;18.60;94.80;;;;;;4939177;29;20115;-76
2021/05/14 07:02:45;;;;;;;3.60;1.60;;;18.50;91.90;;;;;;4939102;29;20179;-78
2021/05/14 07:05:13;;;;;;;3.35;1.30;;;18.50;94.40;;;;;;4922185;29;20028;-75
2021/05/14 07:07:40;;;;;;;4.43;1.20;;;18.50;94.30;;;;;;4939183;29;20023;-76
2021/05/14 07:10:06;;;;;;;3.15;1.15;;;18.50;93.00;;;;;;4922033;29;20079;-77
2021/05/14 07:12:34;;;;;;;2.92;1.20;;;18.50;93.80;;;;;;4939184;29;20107;-76
2021/05/14 07:15:01;;;;;;;4.95;1.67;;;18.40;93.50;;;;;;4921902;29;20411;-78
2021/05/14 07:17:27;;;;;;;4.28;1.30;;;18.50;95.80;;;;;;4939222;29;20115;-77
2021/05/14 07:19:53;;;;;;;3.95;2.05;;;18.60;95.40;;;;;;4939161;29;20051;-78
2021/05/14 07:22:19;;;;;;;2.00;1.00;;;18.80;94.80;;;;;;4938980;29;20024;-77
2021/05/14 07:24:45;;;;;;;4.35;1.30;;;18.80;93.20;;;;;;4938696;29;20390;-77
2021/05/14 07:27:13;;;;;;;4.60;1.30;;;19.10;94.60;;;;;;4938489;29;20109;-78
2021/05/14 07:29:39;;;;;;;1.95;1.10;;;19.30;93.50;;;;;;4938641;29;20561;-78
2021/05/14 07:32:05;;;;;;;2.70;1.13;;;19.30;91.70;;;;;;4921545;29;20027;-78
2021/05/14 07:34:32;;;;;;;7.50;1.30;;;19.40;92.90;;;;;;4939035;29;20024;-77
2021/05/14 07:36:58;;;;;;;3.97;1.35;;;19.30;90.30;;;;;;4921792;29;20023;-78
2021/05/14 07:39:23;;;;;;;2.42;1.27;;;19.30;92.10;;;;;;4938479;29;20020;-77
2021/05/14 07:41:49;;;;;;;2.78;1.20;;;19.20;92.70;;;;;;4938741;29;20098;-79
2021/05/14 07:44:16;;;;;;;3.63;1.40;;;19.20;93.40;;;;;;4938355;29;20482;-78
2021/05/14 07:46:42;;;;;;;4.03;1.80;;;19.00;94.00;;;;;;4938222;29;20027;-78
2021/05/14 07:49:08;;;;;;;3.70;1.13;;;18.90;92.60;;;;;;4938251;29;20035;-77
2021/05/14 07:51:34;;;;;;;5.57;1.83;;;19.00;95.20;;;;;;4938540;29;20024;-81
2021/05/14 07:54:00;;;;;;;3.63;2.33;;;19.00;94.20;;;;;;4938659;29;20034;-78
2021/05/14 07:56:27;;;;;;;3.00;1.60;;;19.00;94.20;;;;;;4921083;29;20026;-78
2021/05/14 07:58:53;;;;;;;4.90;1.35;;;19.00;94.60;;;;;;4938495;29;20019;-82
2021/05/14 08:01:19;;;;;;;2.67;1.40;;;19.10;94.40;;;;;;4937486;29;20430;-79
2021/05/14 08:03:45;;;;;;;3.30;1.45;;;19.10;94.30;;;;;;4938227;29;20043;-77
2021/05/14 08:06:11;;;;;;;5.45;1.52;;;19.10;94.80;;;;;;4937976;29;20483;-77
2021/05/14 08:08:40;;;;;;;4.47;1.20;;;19.10;95.10;;;;;;4937866;29;20119;-77
2021/05/14 08:11:07;;;;;;;3.45;1.30;;;19.00;93.70;;;;;;4936647;29;20032;-78
2021/05/14 08:13:33;;;;;;;4.53;1.15;;;18.90;93.20;;;;;;4938073;29;20490;-77
2021/05/14 08:15:59;;;;;;;3.55;1.17;;;18.90;93.40;;;;;;4936389;29;20031;-77
2021/05/14 08:18:25;;;;;;;3.40;1.35;;;18.90;93.30;;;;;;4935785;29;20031;-78
2021/05/14 08:20:52;;;;;;;4.75;1.27;;;18.90;93.30;;;;;;4935735;29;20490;-77
2021/05/14 08:23:21;;;;;;;6.30;3.28;;;19.00;93.70;;;;;;4935733;29;20038;-76
2021/05/14 08:25:51;;;;;;;5.13;2.50;;;19.00;94.20;;;;;;4935617;29;20027;-78
2021/05/14 08:28:18;;;;;;;4.10;1.25;;;19.00;92.30;;;;;;4935464;29;20056;-78
2021/05/14 08:30:46;;;;;;;2.55;1.08;;;18.90;93.00;;;;;;4936395;29;20040;-78
2021/05/14 08:33:12;;;;;;;2.88;1.30;;;18.80;91.70;;;;;;4937690;29;20019;-76
2021/05/14 08:35:39;;;;;;;3.97;1.30;;;18.80;91.90;;;;;;4938284;29;20035;-79
2021/05/14 08:38:07;;;;;;;5.25;1.52;;;18.90;92.80;;;;;;4937747;29;20024;-80
2021/05/14 08:40:34;;;;;;;3.78;1.35;;;19.00;94.30;;;;;;4937527;29;20352;-79
2021/05/14 08:43:00;;;;;;;3.40;1.13;;;;;;;;;;4937552;29;20103;-79
2021/05/14 08:45:27;;;;;;;2.47;1.10;;;19.30;92.40;;;;;;4937426;29;20031;-75
2021/05/14 08:47:57;;;;;;;3.30;0.90;;;19.20;90.70;;;;;;4937441;29;20443;-79
2021/05/14 08:50:27;;;;;;;2.03;0.90;;;19.20;90.80;;;;;;4937124;29;20460;-78
2021/05/14 08:52:53;;;;;;;3.80;1.10;;;19.20;88.60;;;;;;4937196;29;20075;-77
2021/05/14 08:55:23;;;;;;;2.55;1.13;;;19.30;90.60;;;;;;4919809;29;20080;-77
2021/05/14 08:57:51;;;;;;;3.10;1.10;;;19.70;91.50;;;;;;4937498;29;20039;-77
2021/05/14 09:00:17;;;;;;;4.90;1.23;;;19.80;89.00;;;;;;4937284;29;20067;-78
2021/05/14 09:02:43;;;;;;;2.15;0.75;;;20.10;87.50;;;;;;4937330;29;20108;-77
2021/05/14 09:05:32;;;;;;;4.00;1.05;;;20.20;83.60;;;;;;4936860;29;20023;-77
2021/05/14 09:07:59;;;;;;;2.50;1.13;;;20.20;84.90;;;;;;4937005;29;20058;-76
2021/05/14 09:10:30;;;;;;;2.60;0.90;;;20.40;82.40;;;;;;4919968;29;20028;-78
2021/05/14 09:12:57;;;;;;;3.63;1.27;;;20.20;76.70;;;;;;4936649;29;20028;-76
2021/05/14 09:15:29;;;;;;;4.43;1.20;;;20.10;77.60;;;;;;4936875;29;20103;-78
2021/05/14 09:18:07;;;;;;;2.15;1.10;;;20.50;84.20;;;;;;4919914;29;20036;-78
2021/05/14 09:20:42;;;;;;;2.03;0.95;;;20.50;83.00;;;;;;4936764;29;20047;-77
2021/05/14 09:23:23;;;;;;;2.50;0.80;;;20.50;73.40;;;;;;4937008;29;20032;-78
2021/05/14 09:25:53;;;;;;;2.53;0.77;;;20.60;76.40;;;;;;4919725;29;20040;-79
2021/05/14 09:28:40;;;;;;;1.92;0.80;;;20.60;75.60;;;;;;4936548;29;20479;-78
2021/05/14 09:31:15;;;;;;;3.90;1.42;;;20.50;75.60;;;;;;4919893;29;20047;-83
2021/05/14 09:33:50;;;;;;;2.03;0.90;;;20.90;79.80;;;;;;4936754;29;20028;-79
2021/05/14 09:36:23;;;;;;;1.58;0.80;;;20.90;78.80;;;;;;4936947;29;20039;-79
2021/05/14 09:38:52;;;;;;;2.47;0.70;;;21.00;76.10;;;;;;4936962;29;20470;-78
2021/05/14 09:41:36;;;;;;;3.28;1.02;;;21.00;78.00;;;;;;4919504;29;20032;-78
2021/05/14 09:44:16;;;;;;;3.05;0.75;;;20.90;72.70;;;;;;4936646;29;20482;-78
2021/05/14 09:46:45;;;;;;;3.22;1.00;;;21.20;75.00;;;;;;4936604;29;20553;-81
2021/05/14 09:49:13;;;;;;;2.78;0.85;;;;;;;;;;4936179;29;20093;-76
2021/05/14 09:51:51;;;;;;;4.38;0.88;;;22.30;72.50;;;;;;4936429;29;20028;-79
2021/05/14 09:54:30;;;;;;;3.40;0.95;;;23.00;73.20;;;;;;4919363;29;20038;-81
2021/05/14 09:57:17;;;;;;;3.53;1.10;;;22.60;68.70;;;;;;4919463;29;20370;-77
2021/05/14 09:59:49;;;;;;;4.88;1.10;;;22.30;73.10;;;;;;4919593;29;20050;-76
2021/05/14 10:02:30;;;;;;;146.75;8.20;;;21.90;72.60;;;;;;4936242;29;20032;-80
2021/05/14 10:04:59;;;;;;;2.58;0.88;;;21.60;72.00;;;;;;4936472;29;20079;-77
2021/05/14 10:07:26;;;;;;;3.30;1.00;;;21.90;73.70;;;;;;4919568;29;20466;-82
2021/05/14 10:09:56;;;;;;;3.13;0.90;;;22.40;68.70;;;;;;4936582;29;20110;-79
2021/05/14 10:12:22;;;;;;;1.90;0.77;;;22.50;72.00;;;;;;4936847;29;20020;-76
2021/05/14 10:14:49;;;;;;;2.65;0.90;;;22.20;71.50;;;;;;4936021;29;20038;-83
2021/05/14 10:17:15;;;;;;;2.10;0.75;;;22.80;70.30;;;;;;4936268;29;20024;-80
2021/05/14 10:19:44;;;;;;;1.90;0.70;;;23.30;70.90;;;;;;4936367;29;20020;-77
2021/05/14 10:22:11;;;;;;;2.38;1.10;;;24.00;71.30;;;;;;4936388;29;20410;-75
2021/05/14 10:24:42;;;;;;;3.17;1.20;;;24.00;73.70;;;;;;4919387;29;20024;-80
2021/05/14 10:27:28;;;;;;;2.78;0.90;;;23.80;68.30;;;;;;4939777;29;20172;-80
2021/05/14 10:29:58;;;;;;;3.38;0.95;;;24.10;68.30;;;;;;4940035;29;20032;-76
2021/05/14 10:32:40;;;;;;;3.22;1.10;;;24.30;70.20;;;;;;4922807;29;20031;-78
2021/05/14 10:35:07;;;;;;;1.38;0.80;;;24.20;64.10;;;;;;4939795;29;20023;-75
2021/05/14 10:38:06;;;;;;;3.55;0.73;;;24.50;67.30;;;;;;4939544;29;20031;-76
2021/05/14 10:40:35;;;;;;;2.80;0.82;;;24.40;63.70;;;;;;4936941;29;20513;-75
2021/05/14 10:43:11;;;;;;;11.00;7.35;;;23.90;61.90;;;;;;4939667;29;20026;-77
2021/05/14 10:46:07;;;;;;;2.70;1.40;;;23.90;62.10;;;;;;4939732;29;20497;-77
2021/05/14 10:49:06;;;;;;;3.55;1.20;;;24.00;65.40;;;;;;4939784;29;20114;-76
2021/05/14 10:51:50;;;;;;;1.65;0.68;;;24.10;63.60;;;;;;4939594;29;20122;-76
2021/05/14 10:54:41;;;;;;;3.70;1.05;;;24.50;66.00;;;;;;4939527;29;20478;-76
2021/05/14 10:57:07;;;;;;;2.63;1.00;;;;;;;;;;4939175;29;20028;-76
2021/05/14 10:59:43;;;;;;;4.18;1.50;;;25.30;66.40;;;;;;4939110;29;20028;-76
2021/05/14 11:02:31;;;;;;;3.55;1.05;;;24.50;59.40;;;;;;4939022;29;20039;-76
2021/05/14 11:05:00;;;;;;;3.13;0.95;;;24.60;63.90;;;;;;4921665;29;20509;-77
2021/05/14 11:07:41;;;;;;;2.53;1.10;;;25.00;65.10;;;;;;4938669;29;20020;-76
2021/05/14 11:10:37;;;;;;;2.58;0.77;;;25.10;62.40;;;;;;4922061;29;20402;-76
2021/05/14 11:13:45;;;;;;;2.45;1.02;;;25.00;58.60;;;;;;4935292;29;20046;-76
2021/05/14 11:16:38;;;;;;;3.58;1.20;;;25.20;62.30;;;;;;4939429;29;20383;-75
2021/05/14 11:19:26;;;;;;;2.83;1.10;;;24.70;57.70;;;;;;4934676;29;20430;-75
2021/05/14 11:21:56;;;;;;;3.03;0.80;;;25.10;60.10;;;;;;4938961;29;20024;-76
2021/05/14 11:24:45;;;;;;;2.53;1.02;;;25.60;61.30;;;;;;4938827;29;20478;-75
2021/05/14 11:27:13;;;;;;;1.88;0.70;;;25.50;58.50;;;;;;4938587;29;20052;-77
2021/05/14 11:29:44;;;;;;;4.15;1.00;;;26.00;59.30;;;;;;4939026;29;20470;-75
2021/05/14 11:32:31;;;;;;;2.25;0.98;;;26.20;59.50;;;;;;4938755;29;20039;-75
2021/05/14 11:35:16;;;;;;;2.83;1.00;;;26.00;59.50;;;;;;4938923;29;20031;-75
2021/05/14 11:37:52;;;;;;;2.47;1.00;;;26.00;58.30;;;;;;4939026;29;20154;-76
2021/05/14 11:40:24;;;;;;;1.80;0.80;;;26.30;61.10;;;;;;4939045;29;20375;-77
2021/05/14 11:42:58;;;;;;;3.60;1.00;;;26.40;59.90;;;;;;4922093;29;20063;-77
2021/05/14 11:45:37;;;;;;;2.63;0.88;;;26.10;58.90;;;;;;4938683;29;20106;-76
2021/05/14 11:48:10;;;;;;;2.67;0.80;;;26.20;58.00;;;;;;4938654;29;20038;-76
2021/05/14 11:50:47;;;;;;;2.63;1.30;;;25.60;56.20;;;;;;4938980;29;20024;-76
2021/05/14 11:53:15;;;;;;;1.45;0.80;;;24.90;59.10;;;;;;4938932;29;20024;-76
2021/05/14 11:55:46;;;;;;;3.85;1.30;;;24.20;58.60;;;;;;4938653;29;20020;-77
2021/05/14 11:58:13;;;;;;;3.50;1.08;;;23.70;59.50;;;;;;4938106;29;20020;-76
2021/05/14 12:00:41;;;;;;;5.32;1.50;;;23.30;60.60;;;;;;4938361;29;20052;-75
2021/05/14 12:03:18;;;;;;;5.25;1.27;;;23.00;61.50;;;;;;4938126;29;20016;-77
2021/05/14 12:05:48;;;;;;;4.38;1.30;;;22.80;62.90;;;;;;4938019;29;20020;-77
2021/05/14 12:08:27;;;;;;;3.83;1.30;;;22.60;62.10;;;;;;4938036;29;20028;-76
2021/05/14 12:10:56;;;;;;;3.95;1.02;;;23.30;65.30;;;;;;4938306;29;20493;-76
2021/05/14 12:13:28;;;;;;;3.10;1.00;;;24.00;66.80;;;;;;4937803;29;20122;-76
2021/05/14 12:16:05;;;;;;;3.53;0.90;;;24.30;60.90;;;;;;4938146;29;20032;-76
2021/05/14 12:18:50;;;;;;;1.63;0.85;;;24.40;60.80;;;;;;4938229;29;20028;-77
2021/05/14 12:21:24;;;;;;;3.78;0.90;;;23.70;61.70;;;;;;4937237;29;20082;-76
2021/05/14 12:23:51;;;;;;;2.78;1.10;;;23.50;64.40;;;;;;4938167;29;20028;-78
2021/05/14 12:26:17;;;;;;;2.30;0.95;;;23.80;62.00;;;;;;4939516;29;20024;-76
2021/05/14 12:28:46;;;;;;;1.70;0.75;;;24.10;63.30;;;;;;4933746;29;20039;-78
2021/05/14 12:31:30;;;;;;;3.35;1.10;;;24.00;64.10;;;;;;4956923;29;20533;-77
2021/05/14 12:34:01;;;;;;;4.00;1.30;;;24.10;61.20;;;;;;4939682;29;20030;-78
2021/05/14 12:36:30;;;;;;;2.75;1.33;;;23.90;63.20;;;;;;4956688;29;20072;-77
2021/05/14 12:39:10;;;;;;;2.67;1.08;;;23.70;63.40;;;;;;4939411;29;20019;-76
2021/05/14 12:42:03;;;;;;;2.65;0.70;;;23.70;65.00;;;;;;4956814;29;20027;-78
2021/05/14 12:44:35;;;;;;;5.35;1.08;;;24.00;63.70;;;;;;4956654;29;20459;-77
2021/05/14 12:47:09;;;;;;;1.75;1.08;;;23.20;62.80;;;;;;4939271;29;20114;-77
2021/05/14 12:49:52;;;;;;;1.55;0.68;;;22.50;63.80;;;;;;4956251;29;20378;-76
2021/05/14 12:52:29;;;;;;;2.33;0.65;;;22.10;65.30;;;;;;4956859;29;20042;-77
2021/05/14 12:55:03;;;;;;;1.23;0.68;;;21.90;66.80;;;;;;4953466;29;20078;-77
2021/05/14 12:57:31;;;;;;;0.47;0.47;;;21.60;65.80;;;;;;4940151;29;20027;-76
2021/05/14 12:59:59;;;;;;;1.98;0.55;;;21.40;65.10;;;;;;4937254;29;20335;-78
2021/05/14 13:02:28;;;;;;;0.65;0.47;;;21.20;66.90;;;;;;4936944;29;20389;-77
2021/05/14 13:05:08;;;;;;;1.48;0.50;;;21.10;68.20;;;;;;4937355;29;20086;-77